createdAt,value
2023-04-23T04:48:33.925Z,27.73
2023-04-23T04:53:37.140Z,28.77
2023-04-23T04:55:11.724Z,24.80
2023-04-23T04:56:22.498Z,23.90
2023-04-23T04:57:54.852Z,24.38
2023-04-23T04:59:07.635Z,24.45
2023-04-23T05:00:30.111Z,22.20
2023-04-23T05:01:33.739Z,23.27
2023-04-23T05:02:37.525Z,21.90
2023-04-23T05:03:40.405Z,22.95
2023-04-23T05:05:10.106Z,20.75
2023-04-23T05:06:12.010Z,21.58
2023-04-23T05:07:14.747Z,22.30
2023-04-23T05:08:17.512Z,22.17
2023-04-23T05:09:19.635Z,22.45
2023-04-23T05:10:28.075Z,21.92
2023-04-23T05:11:32.181Z,22.83
2023-04-23T05:12:36.028Z,22.40
2023-04-23T05:13:38.757Z,22.08
2023-04-23T05:14:43.075Z,22.70
2023-04-23T05:15:47.018Z,21.98
2023-04-23T05:18:20.623Z,24.10
2023-04-23T05:19:23.825Z,33.25
2023-04-23T05:20:27.263Z,20.58
2023-04-23T05:21:29.476Z,20.23
2023-04-23T05:22:31.792Z,19.42
2023-04-23T05:23:37.197Z,25.48
2023-04-23T05:24:51.184Z,21.27
2023-04-23T05:25:56.130Z,32.15
2023-04-23T05:28:18.145Z,17.20
2023-04-23T05:29:22.631Z,16.17
2023-04-23T05:30:27.514Z,16.42
2023-04-23T05:31:46.792Z,17.25
2023-04-23T05:34:18.491Z,21.13
2023-04-23T05:35:20.705Z,18.55
2023-04-23T05:36:22.710Z,17.52
2023-04-23T05:37:27.952Z,17.58
2023-04-23T05:38:38.461Z,17.95
2023-04-23T05:39:51.007Z,18.88
2023-04-23T05:41:21.428Z,18.92
2023-04-23T05:42:32.359Z,19.65
2023-04-23T05:48:26.014Z,21.77
2023-04-23T05:49:29.155Z,19.10
2023-04-23T05:50:35.899Z,19.40
2023-04-23T05:51:41.908Z,18.65
2023-04-23T05:52:44.419Z,19.70
2023-04-23T05:53:53.678Z,19.02
2023-04-23T05:54:55.931Z,20.13
2023-04-23T05:55:57.951Z,19.40
2023-04-23T05:56:59.933Z,19.80
2023-04-23T05:58:02.604Z,19.40
2023-04-23T05:59:04.646Z,18.50
2023-04-23T06:00:09.872Z,19.08
2023-04-23T06:01:15.421Z,18.60
2023-04-23T06:02:17.319Z,18.40
2023-04-23T06:03:24.487Z,18.90
2023-04-23T06:04:27.319Z,19.65
2023-04-23T06:05:30.114Z,19.92
2023-04-23T06:06:32.276Z,18.95
2023-04-23T06:07:34.576Z,19.17
2023-04-23T06:08:36.344Z,20.20
2023-04-23T06:09:38.586Z,19.40
2023-04-23T06:10:40.623Z,18.35
2023-04-23T06:11:42.676Z,17.00
2023-04-23T06:12:44.614Z,16.95
2023-04-23T06:13:46.563Z,16.70
2023-04-23T06:14:48.901Z,16.55
2023-04-23T06:15:52.181Z,17.83
2023-04-23T06:16:54.127Z,16.40
2023-04-23T06:17:56.300Z,16.38
2023-04-23T06:18:58.184Z,17.95
2023-04-23T06:20:01.156Z,16.23
2023-04-23T06:21:04.446Z,17.70
2023-04-23T06:22:06.561Z,17.40
2023-04-23T06:23:08.340Z,16.27
2023-04-23T06:24:10.238Z,14.43
2023-04-23T06:25:13.276Z,14.50
2023-04-23T06:26:15.326Z,13.57
2023-04-23T06:27:18.621Z,12.65
2023-04-23T06:28:25.046Z,13.27
2023-04-23T06:29:50.819Z,13.15
2023-04-23T06:30:53.998Z,10.57
2023-04-23T06:31:56.874Z,9.13
2023-04-23T06:32:58.705Z,9.82
2023-04-23T06:34:01.353Z,11.63
2023-04-23T06:35:04.993Z,9.18
2023-04-23T06:36:09.583Z,8.02
2023-04-23T06:37:11.695Z,8.73
2023-04-23T06:38:13.560Z,7.90
2023-04-23T06:39:15.629Z,7.80
2023-04-23T06:40:18.014Z,6.28
2023-04-23T06:41:21.671Z,5.65
2023-04-23T06:42:34.563Z,4.53
2023-04-23T06:43:59.409Z,4.18
2023-04-23T06:45:10.926Z,3.67
2023-04-23T06:46:12.880Z,3.95
2023-04-23T06:47:16.114Z,4.00
2023-04-23T06:48:18.658Z,3.58
2023-04-23T06:49:21.053Z,3.97
2023-04-23T06:50:24.342Z,4.20
2023-04-23T06:51:27.779Z,4.65
2023-04-23T06:52:29.750Z,3.70
2023-04-23T06:53:32.054Z,3.70
2023-04-23T06:54:34.044Z,4.28
2023-04-23T06:55:36.407Z,4.07
2023-04-23T06:56:38.391Z,3.40
2023-04-23T06:57:40.598Z,3.80
2023-04-23T06:58:42.596Z,3.70
2023-04-23T06:59:52.157Z,3.80
2023-04-23T07:01:01.413Z,3.70
2023-04-23T07:02:05.337Z,3.90
2023-04-23T07:03:07.613Z,3.58
2023-04-23T07:04:10.758Z,3.60
2023-04-23T07:05:13.372Z,3.95
2023-04-23T07:06:16.374Z,3.92
2023-04-23T07:07:18.714Z,4.45
2023-04-23T07:08:22.608Z,4.65
2023-04-23T07:09:24.981Z,4.25
2023-04-23T07:10:27.173Z,4.20
2023-04-23T07:11:37.665Z,4.40
2023-04-23T07:12:40.170Z,3.97
2023-04-23T07:13:42.535Z,4.10
2023-04-23T07:14:44.449Z,3.92
2023-04-23T07:15:46.824Z,4.10
2023-04-23T07:16:48.638Z,4.18
2023-04-23T07:17:50.555Z,3.95
2023-04-23T07:18:52.621Z,3.92
2023-04-23T07:19:54.767Z,4.13
2023-04-23T07:20:56.804Z,4.60
2023-04-23T07:21:58.677Z,4.25
2023-04-23T07:23:00.969Z,4.07
2023-04-23T07:24:08.969Z,4.97
2023-04-23T07:25:12.081Z,6.03
2023-04-23T07:26:14.189Z,4.22
2023-04-23T07:27:16.171Z,4.60
2023-04-23T07:28:18.000Z,4.65
2023-04-23T07:29:19.922Z,4.60
2023-04-23T07:30:24.083Z,4.30
2023-04-23T07:31:26.559Z,5.35
2023-04-23T07:32:28.599Z,3.85
2023-04-23T07:33:30.548Z,4.20
2023-04-23T07:34:32.333Z,3.50
2023-04-23T07:35:34.331Z,3.92
2023-04-23T07:36:36.830Z,3.67
2023-04-23T07:37:38.799Z,3.75
2023-04-23T07:38:41.043Z,4.45
2023-04-23T07:39:44.148Z,4.25
2023-04-23T07:40:47.764Z,4.47
2023-04-23T07:41:49.774Z,3.97
2023-04-23T07:42:52.179Z,4.00
2023-04-23T07:43:54.015Z,3.33
2023-04-23T07:44:55.864Z,3.30
2023-04-23T07:45:58.284Z,3.38
2023-04-23T07:47:00.801Z,3.78
2023-04-23T07:48:02.697Z,3.80
2023-04-23T07:49:04.617Z,3.40
2023-04-23T07:50:07.565Z,4.13
2023-04-23T07:51:09.763Z,4.25
2023-04-23T07:52:11.577Z,4.32
2023-04-23T07:53:13.918Z,4.07
2023-04-23T07:54:15.825Z,4.50
2023-04-23T07:55:18.019Z,4.20
2023-04-23T07:56:24.768Z,4.57
2023-04-23T07:57:26.903Z,4.60
2023-04-23T07:58:28.878Z,4.75
2023-04-23T07:59:30.770Z,5.15
2023-04-23T08:00:33.045Z,5.47
2023-04-23T08:01:34.952Z,5.65
2023-04-23T08:02:37.131Z,5.53
2023-04-23T08:03:39.214Z,5.68
2023-04-23T08:04:41.220Z,5.60
2023-04-23T08:05:45.613Z,5.22
2023-04-23T08:06:47.781Z,4.95
2023-04-23T08:10:06.918Z,4.05
2023-04-23T08:13:51.019Z,4.30
2023-04-23T08:15:11.390Z,4.20
2023-04-23T08:16:24.625Z,5.32
2023-04-23T08:18:24.561Z,5.93
2023-04-23T08:25:55.550Z,4.45
2023-04-23T08:26:57.674Z,5.45
2023-04-23T08:27:59.692Z,5.88
2023-04-23T08:29:01.817Z,5.22
2023-04-23T08:30:05.722Z,5.28
2023-04-23T08:31:19.031Z,4.95
2023-04-23T08:32:28.061Z,4.75
2023-04-23T08:33:29.947Z,4.85
2023-04-23T08:34:33.914Z,4.60
2023-04-23T08:35:37.183Z,4.68
2023-04-23T08:36:39.330Z,4.00
2023-04-23T08:37:41.453Z,3.92
2023-04-23T08:38:43.569Z,3.55
2023-04-23T08:39:45.884Z,3.75
2023-04-23T08:40:55.701Z,3.70
2023-04-23T08:42:03.765Z,3.17
2023-04-23T08:43:14.227Z,3.05
2023-04-23T08:44:22.698Z,3.25
2023-04-23T08:45:26.848Z,3.72
2023-04-23T08:46:32.836Z,3.45
2023-04-23T08:47:36.309Z,3.53
2023-04-23T08:48:40.487Z,3.58
2023-04-23T08:49:43.907Z,3.08
2023-04-23T08:50:48.271Z,3.42
2023-04-23T08:51:53.500Z,3.70
2023-04-23T08:52:56.912Z,4.45
2023-04-23T08:54:03.982Z,4.30
2023-04-23T08:55:10.854Z,3.22
2023-04-23T08:56:13.889Z,3.50
2023-04-23T08:57:17.793Z,3.90
2023-04-23T08:58:20.349Z,3.88
2023-04-23T08:59:23.206Z,3.28
2023-04-23T09:00:27.564Z,3.80
2023-04-23T09:01:30.998Z,3.72
2023-04-23T09:02:35.199Z,3.55
2023-04-23T09:03:38.231Z,3.58
2023-04-23T09:04:41.363Z,3.80
2023-04-23T09:05:44.427Z,3.75
2023-04-23T09:06:47.043Z,3.80
2023-04-23T09:07:48.937Z,4.65
2023-04-23T09:08:53.229Z,4.18
2023-04-23T09:09:55.114Z,4.70
2023-04-23T09:11:01.663Z,4.15
2023-04-23T09:12:05.776Z,3.90
2023-04-23T09:13:08.479Z,4.10
2023-04-23T09:14:11.206Z,4.10
2023-04-23T09:15:14.214Z,3.97
2023-04-23T09:16:18.686Z,3.80
2023-04-23T09:17:22.670Z,3.95
2023-04-23T09:18:25.135Z,4.00
2023-04-23T09:19:27.976Z,3.75
2023-04-23T09:20:30.122Z,3.75
2023-04-23T09:21:33.434Z,3.53
2023-04-23T09:22:53.804Z,4.43
2023-04-23T09:23:55.927Z,3.80
2023-04-23T09:25:04.371Z,4.10
2023-04-23T09:26:08.273Z,4.47
2023-04-23T09:27:10.567Z,4.05
2023-04-23T09:28:14.454Z,4.90
2023-04-23T09:29:19.762Z,4.72
2023-04-23T09:30:25.462Z,3.75
2023-04-23T09:31:28.135Z,3.70
2023-04-23T09:32:33.802Z,3.60
2023-04-23T09:33:39.125Z,3.65
2023-04-23T09:34:43.981Z,3.50
2023-04-23T09:35:48.854Z,4.05
2023-04-23T09:36:53.401Z,3.42
2023-04-23T09:37:55.710Z,3.47
2023-04-23T09:38:59.480Z,3.67
2023-04-23T09:40:04.448Z,4.00
2023-04-23T09:41:27.992Z,3.80
2023-04-23T09:42:30.846Z,3.75
2023-04-23T09:43:32.944Z,3.53
2023-04-23T09:44:35.363Z,3.65
2023-04-23T09:45:38.091Z,3.40
2023-04-23T09:46:46.003Z,4.15
2023-04-23T09:48:05.347Z,3.50
2023-04-23T09:49:12.293Z,3.70
2023-04-23T09:50:14.513Z,3.78
2023-04-23T09:51:25.484Z,3.75
2023-04-23T09:52:29.322Z,3.78
2023-04-23T09:53:43.448Z,3.63
2023-04-23T09:54:46.724Z,3.70
2023-04-23T09:55:49.104Z,3.30
2023-04-23T09:57:08.751Z,3.78
2023-04-23T09:58:18.254Z,3.70
2023-04-23T09:59:50.213Z,4.05
2023-04-23T10:01:09.920Z,4.10
2023-04-23T10:02:15.511Z,3.65
2023-04-23T10:03:27.615Z,3.67
2023-04-23T10:04:37.582Z,5.07
2023-04-23T10:05:59.584Z,3.72
2023-04-23T10:07:19.035Z,3.85
2023-04-23T10:09:28.343Z,4.00
2023-04-23T10:10:51.044Z,3.95
2023-04-23T10:12:02.227Z,4.50
2023-04-23T10:13:07.576Z,3.42
2023-04-23T10:14:10.051Z,3.80
2023-04-23T10:15:14.002Z,3.42
2023-04-23T10:16:23.249Z,3.40
2023-04-23T10:17:28.172Z,3.80
2023-04-23T10:18:33.019Z,4.22
2023-04-23T10:19:41.575Z,3.47
2023-04-23T10:20:44.097Z,3.30
2023-04-23T10:21:57.798Z,3.60
2023-04-23T10:23:02.845Z,3.88
2023-04-23T10:24:09.868Z,3.58
2023-04-23T10:25:15.972Z,3.83
2023-04-23T10:26:22.696Z,3.50
2023-04-23T10:27:48.677Z,3.60
2023-04-23T10:28:55.365Z,3.20
2023-04-23T10:30:01.805Z,3.50
2023-04-23T10:31:09.864Z,3.45
2023-04-23T10:32:12.852Z,3.30
2023-04-23T10:33:26.569Z,3.08
2023-04-23T10:34:35.529Z,3.25
2023-04-23T10:36:07.881Z,2.95
2023-04-23T10:37:12.178Z,3.60
2023-04-23T10:38:16.946Z,3.13
2023-04-23T10:39:29.438Z,3.15
2023-04-23T10:40:34.162Z,3.22
2023-04-23T10:41:39.444Z,3.25
2023-04-23T10:42:43.712Z,3.05
2023-04-23T10:43:46.124Z,3.17
2023-04-23T10:44:59.161Z,3.80
2023-04-23T10:46:31.568Z,3.22
2023-04-23T10:47:33.580Z,3.60
2023-04-23T10:49:16.980Z,3.42
2023-04-23T10:50:22.565Z,3.60
2023-04-23T10:52:45.540Z,4.05
2023-04-23T10:53:47.819Z,4.07
2023-04-23T10:54:58.096Z,4.07
2023-04-23T10:56:10.312Z,4.20
2023-04-23T10:57:12.376Z,4.05
2023-04-23T10:58:14.697Z,4.00
2023-04-23T10:59:22.017Z,3.63
2023-04-23T11:00:24.881Z,4.13
2023-04-23T11:01:31.731Z,3.70
2023-04-23T11:02:46.560Z,4.03
2023-04-23T11:03:49.249Z,3.78
2023-04-23T11:04:59.088Z,3.63
2023-04-23T11:06:47.003Z,4.10
2023-04-23T11:08:18.848Z,4.22
2023-04-23T11:09:45.108Z,3.45
2023-04-23T11:10:57.966Z,3.28
2023-04-23T11:12:02.591Z,4.38
2023-04-23T11:13:28.200Z,3.25
2023-04-23T11:14:46.322Z,6.68
2023-04-23T11:15:49.549Z,3.88
2023-04-23T11:16:51.759Z,3.53
2023-04-23T11:17:53.945Z,3.50
2023-04-23T11:19:03.660Z,3.28
2023-04-23T11:20:14.374Z,3.35
2023-04-23T11:21:16.903Z,3.85
2023-04-23T11:22:21.746Z,3.58
2023-04-23T11:23:33.095Z,3.75
2023-04-23T11:24:43.248Z,3.50
2023-04-23T11:25:48.170Z,3.58
2023-04-23T11:26:57.300Z,3.50
2023-04-23T11:28:00.689Z,3.70
2023-04-23T11:29:04.777Z,3.45
2023-04-23T11:30:12.433Z,3.47
2023-04-23T11:31:20.956Z,2.85
2023-04-23T11:32:24.570Z,2.97
2023-04-23T11:33:28.484Z,3.05
2023-04-23T11:34:32.408Z,3.65
2023-04-23T11:35:40.819Z,3.30
2023-04-23T11:36:48.921Z,3.42
2023-04-23T11:37:51.230Z,3.97
2023-04-23T11:38:56.855Z,3.08
2023-04-23T11:41:24.817Z,3.90
2023-04-23T11:46:25.034Z,4.63
2023-04-23T11:47:27.721Z,4.57
2023-04-23T11:48:29.836Z,3.72
2023-04-23T11:49:32.042Z,3.22
2023-04-23T11:50:35.663Z,3.50
2023-04-23T11:51:46.961Z,3.70
2023-04-23T11:52:51.583Z,3.67
2023-04-23T11:53:53.746Z,7.22
2023-04-23T11:54:56.560Z,3.97
2023-04-23T11:56:05.574Z,3.47
2023-04-23T11:58:11.587Z,3.55
2023-04-23T11:59:13.713Z,3.05
2023-04-23T12:00:27.048Z,4.00
2023-04-23T12:01:51.084Z,3.38
2023-04-23T12:02:55.621Z,3.90
2023-04-23T12:03:58.168Z,4.47
2023-04-23T12:05:06.794Z,4.32
2023-04-23T12:06:12.935Z,3.35
2023-04-23T12:07:25.783Z,3.35
2023-04-23T12:08:35.037Z,3.20
2023-04-23T12:09:40.950Z,3.20
2023-04-23T12:11:06.394Z,4.35
2023-04-23T12:14:11.033Z,3.58
2023-04-23T12:16:13.412Z,3.65
2023-04-23T12:17:21.537Z,3.20
2023-04-23T12:21:46.421Z,3.70
2023-04-23T12:22:50.106Z,4.55
2023-04-23T12:23:54.254Z,3.65
2023-04-23T12:24:59.397Z,3.55
2023-04-23T12:26:04.043Z,2.95
2023-04-23T12:27:22.971Z,3.20
2023-04-23T12:28:26.805Z,3.70
2023-04-23T12:29:33.684Z,3.47
2023-04-23T12:30:48.504Z,3.65
2023-04-23T12:33:35.949Z,7.88
2023-04-23T12:34:49.349Z,3.42
2023-04-23T12:36:26.940Z,3.10
2023-04-23T12:37:40.980Z,3.70
2023-04-23T12:38:43.174Z,7.85
2023-04-23T12:40:06.050Z,3.22
2023-04-23T12:41:14.446Z,4.13
2023-04-23T12:42:29.249Z,3.67
2023-04-23T12:43:39.362Z,3.38
2023-04-23T12:44:44.113Z,5.43
2023-04-23T12:45:47.914Z,4.93
2023-04-23T12:47:43.635Z,3.45
2023-04-23T12:50:32.364Z,3.47
2023-04-23T12:51:34.540Z,4.43
2023-04-23T12:52:47.510Z,3.55
2023-04-23T12:54:01.538Z,3.60
2023-04-23T12:55:05.308Z,3.70
2023-04-23T12:56:07.754Z,3.47
2023-04-23T12:57:14.469Z,4.20
2023-04-23T12:58:16.361Z,3.30
2023-04-23T12:59:23.941Z,3.85
2023-04-23T13:00:30.228Z,4.43
2023-04-23T13:01:33.303Z,5.40
2023-04-23T13:02:35.219Z,4.22
2023-04-23T13:03:37.200Z,4.75
2023-04-23T13:04:44.991Z,3.88
2023-04-23T13:05:52.389Z,3.92
2023-04-23T13:06:58.961Z,4.10
2023-04-23T13:08:03.934Z,4.05
2023-04-23T13:09:05.997Z,5.32
2023-04-23T13:10:09.280Z,4.38
2023-04-23T13:11:13.921Z,4.85
2023-04-23T13:12:18.972Z,3.72
2023-04-23T13:13:21.843Z,4.38
2023-04-23T13:14:27.210Z,3.97
2023-04-23T13:15:33.722Z,4.35
2023-04-23T13:16:38.113Z,4.07
2023-04-23T13:17:40.145Z,3.90
2023-04-23T13:18:42.269Z,3.88
2023-04-23T13:19:45.000Z,3.38
2023-04-23T13:20:47.074Z,4.03
2023-04-23T13:21:49.027Z,4.40
2023-04-23T13:22:59.689Z,3.42
2023-04-23T13:24:02.014Z,3.90
2023-04-23T13:25:04.467Z,3.88
2023-04-23T13:26:09.735Z,4.05
2023-04-23T13:27:14.897Z,3.67
2023-04-23T13:28:19.302Z,4.32
2023-04-23T13:29:21.262Z,3.97
2023-04-23T13:30:23.517Z,5.13
2023-04-23T13:31:55.515Z,3.63
2023-04-23T13:33:14.530Z,3.78
2023-04-23T13:34:51.385Z,3.03
2023-04-23T13:35:56.718Z,3.63
2023-04-23T13:37:06.470Z,3.75
2023-04-23T13:38:12.662Z,3.70
2023-04-23T13:39:17.248Z,3.60
2023-04-23T13:40:19.332Z,3.13
2023-04-23T13:41:27.537Z,4.50
2023-04-23T13:42:29.478Z,3.35
2023-04-23T13:52:14.408Z,5.45
2023-04-23T13:53:36.096Z,5.35
2023-04-23T13:55:09.808Z,6.65
2023-04-23T13:56:39.070Z,6.28
2023-04-23T13:57:42.808Z,6.10
2023-04-23T13:58:48.442Z,5.07
2023-04-23T14:00:03.324Z,6.13
2023-04-23T14:01:08.030Z,5.15
2023-04-23T14:02:10.565Z,5.78
2023-04-23T14:03:12.629Z,5.53
2023-04-23T14:04:15.138Z,5.82
2023-04-23T14:05:17.076Z,5.55
2023-04-23T14:06:20.693Z,5.50
2023-04-23T14:07:24.899Z,5.63
2023-04-23T14:08:26.731Z,5.18
2023-04-23T14:09:30.027Z,5.20
2023-04-23T14:10:33.782Z,5.55
2023-04-23T14:11:36.383Z,6.30
2023-04-23T14:12:42.448Z,6.22
2023-04-23T14:13:44.685Z,7.53
2023-04-23T14:14:46.697Z,6.15
2023-04-23T14:15:51.747Z,5.93
2023-04-23T14:16:54.500Z,9.70
2023-04-23T14:17:56.570Z,6.40
2023-04-23T14:18:58.705Z,5.00
2023-04-23T14:20:00.804Z,5.70
2023-04-23T14:21:02.873Z,5.53
2023-04-23T14:22:08.698Z,5.35
2023-04-23T14:23:17.146Z,5.05
2023-04-23T14:24:44.967Z,5.15
2023-04-23T14:26:49.272Z,4.95
2023-04-23T14:28:03.310Z,4.43
2023-04-23T14:33:03.699Z,4.70
2023-04-23T14:34:12.203Z,5.40
2023-04-23T14:35:17.327Z,4.72
2023-04-23T14:36:25.852Z,4.75
2023-04-23T14:41:07.751Z,4.80
2023-04-23T14:42:35.391Z,5.07
2023-04-23T14:43:41.076Z,5.00
2023-04-23T14:44:44.932Z,4.55
2023-04-23T14:45:50.426Z,5.47
2023-04-23T14:46:56.387Z,11.60
2023-04-23T14:49:22.068Z,6.20
2023-04-23T14:50:23.992Z,4.93
2023-04-23T14:51:27.956Z,5.05
2023-04-23T14:53:55.909Z,6.20
2023-04-23T14:55:00.610Z,6.70
2023-04-23T14:56:06.213Z,6.15
2023-04-23T15:00:56.635Z,12.50
2023-04-23T15:02:05.754Z,10.25
2023-04-23T15:04:42.811Z,5.82
2023-04-23T15:05:46.237Z,5.93
2023-04-23T15:06:49.777Z,7.65
2023-04-23T15:07:53.922Z,5.93
2023-04-23T15:08:57.283Z,7.13
2023-04-23T15:10:06.650Z,5.63
2023-04-23T15:11:13.542Z,5.97
2023-04-23T15:13:12.594Z,6.03
2023-04-23T15:14:25.096Z,5.30
2023-04-23T15:15:43.902Z,4.55
2023-04-23T15:16:49.718Z,4.82
2023-04-23T15:17:52.681Z,4.70
2023-04-23T15:18:59.079Z,5.28
2023-04-23T15:20:01.201Z,4.40
2023-04-23T15:21:06.395Z,4.70
2023-04-23T15:22:12.712Z,5.82
2023-04-23T15:23:14.785Z,5.32
2023-04-23T15:24:17.205Z,5.22
2023-04-23T15:25:22.678Z,5.10
2023-04-23T15:26:54.071Z,4.85
2023-04-23T15:27:59.186Z,5.40
2023-04-23T15:29:01.956Z,5.00
2023-04-23T15:30:04.869Z,4.55
2023-04-23T15:31:08.323Z,4.40
2023-04-23T15:32:12.122Z,4.47
2023-04-23T15:33:17.853Z,6.20
2023-04-23T15:34:19.789Z,11.25
2023-04-23T15:35:22.990Z,11.00
2023-04-23T15:36:24.806Z,8.60
2023-04-23T15:37:29.239Z,14.65
2023-04-23T15:38:33.900Z,10.30
2023-04-23T15:39:35.986Z,7.00
2023-04-23T15:40:42.777Z,5.18
2023-04-23T15:41:46.298Z,3.97
2023-04-23T15:42:51.572Z,4.80
2023-04-23T15:43:55.009Z,5.30
2023-04-23T15:44:59.363Z,5.75
2023-04-23T15:46:01.627Z,8.07
2023-04-23T15:47:03.816Z,5.28
2023-04-23T15:48:05.893Z,9.48
2023-04-23T15:49:09.724Z,12.13
2023-04-23T15:50:13.155Z,22.98
2023-04-23T15:51:15.387Z,11.52
2023-04-23T15:52:18.012Z,8.30
2023-04-23T15:53:23.235Z,5.57
2023-04-23T15:54:27.042Z,6.00
2023-04-23T15:55:29.529Z,5.60
2023-04-23T15:56:33.526Z,6.38
2023-04-23T15:57:36.565Z,6.13
2023-04-23T15:58:38.764Z,4.93
2023-04-23T15:59:41.161Z,4.97
2023-04-23T16:00:43.209Z,5.07
2023-04-23T16:01:48.581Z,6.10
2023-04-23T16:03:18.730Z,8.80
2023-04-23T16:04:21.065Z,5.50
2023-04-23T16:05:24.099Z,5.32
2023-04-23T16:06:27.038Z,5.63
2023-04-23T16:07:29.345Z,5.03
2023-04-23T16:08:32.443Z,3.80
2023-04-23T16:09:34.654Z,4.70
2023-04-23T16:10:38.633Z,5.03
2023-04-23T16:11:42.206Z,4.95
2023-04-23T16:12:46.143Z,4.70
2023-04-23T16:14:13.287Z,6.55
2023-04-23T16:15:22.722Z,4.50
2023-04-23T16:24:48.531Z,5.57
2023-04-23T16:40:36.819Z,4.85
2023-04-23T16:44:48.053Z,4.45
2023-04-23T16:45:51.563Z,4.18
2023-04-23T16:46:54.371Z,3.97
2023-04-23T16:48:07.092Z,4.30
2023-04-23T16:49:12.408Z,31.88
2023-04-23T16:50:14.592Z,7.35
2023-04-23T16:51:18.617Z,8.75
2023-04-23T17:16:07.729Z,6.03
2023-04-23T17:17:38.319Z,5.57
2023-04-23T17:18:40.436Z,5.53
2023-04-23T17:19:48.240Z,6.10
2023-04-23T17:20:50.488Z,5.10
2023-04-23T17:22:15.841Z,5.60
2023-04-23T17:23:22.195Z,5.47
2023-04-23T17:30:18.152Z,6.28
2023-04-23T17:31:24.915Z,11.48
2023-04-23T17:44:46.723Z,33.90
2023-04-23T17:46:54.620Z,31.80
2023-04-23T17:49:38.222Z,26.73
2023-04-23T17:54:29.370Z,270.92
2023-04-23T17:55:34.345Z,84.95
2023-04-23T17:56:36.689Z,150.57
2023-04-23T17:57:39.339Z,215.20
2023-04-23T17:58:43.320Z,281.00
2023-04-23T17:59:45.964Z,261.48
2023-04-23T18:00:48.307Z,202.88
2023-04-23T18:01:50.806Z,120.63
2023-04-23T18:02:54.306Z,78.95
2023-04-23T18:04:02.660Z,75.97
2023-04-23T18:05:05.021Z,43.38
2023-04-23T18:06:08.828Z,36.63
2023-04-23T18:07:12.517Z,39.25
2023-04-23T18:08:19.565Z,23.55
2023-04-23T18:09:35.933Z,17.88
2023-04-23T18:11:01.419Z,34.38
2023-04-23T18:12:07.490Z,19.73
2023-04-23T18:13:11.759Z,21.08
2023-04-23T18:14:21.628Z,25.50
2023-04-23T18:15:25.920Z,57.95
2023-04-23T18:16:30.993Z,40.80
2023-04-23T18:18:00.256Z,22.38
2023-04-23T18:19:05.068Z,28.83
2023-04-23T18:20:11.836Z,26.98
2023-04-23T18:21:19.350Z,26.30
2023-04-23T18:22:23.403Z,24.27
2023-04-23T18:23:29.369Z,25.00
2023-04-23T18:24:37.786Z,25.10
2023-04-23T18:25:42.290Z,21.65
2023-04-23T18:26:55.232Z,25.48
2023-04-23T18:27:57.494Z,25.13
2023-04-23T18:29:02.117Z,24.88
2023-04-23T18:30:11.542Z,23.50
